Time;durP1;ratioP1;P1;durP2;ratioP2;P2;SDS_P1;SDS_P2;PMS_P1;PMS_P2;Temp;Humidity;BMP_temperature;BMP_pressure;BME280_temperature;BME280_humidity;BME280_pressure;Samples;Min_cycle;Max_cycle;Signal;HPM_P1;HPM_P2
2023/03/18 00:00:21;;;;;;;4.00;2.53;;;9.00;88.50;;;;;;4996565;28;20838;-82
2023/03/18 00:03:01;;;;;;;5.33;4.07;;;8.90;88.10;;;;;;5002470;28;20416;-82
2023/03/18 00:05:30;;;;;;;1.67;1.60;;;8.90;88.40;;;;;;4989901;28;20980;-82
2023/03/18 00:08:29;;;;;;;2.00;1.70;;;8.90;88.80;;;;;;4996964;28;20457;-82
2023/03/18 00:11:19;;;;;;;3.83;3.17;;;8.90;88.90;;;;;;4972818;28;20424;-82
2023/03/18 00:13:51;;;;;;;2.57;2.37;;;8.80;89.60;;;;;;4986769;28;20481;-83
2023/03/18 00:16:20;;;;;;;3.90;3.23;;;8.80;90.00;;;;;;4981411;28;20510;-82
2023/03/18 00:18:48;;;;;;;2.60;2.03;;;8.70;90.10;;;;;;4988061;28;20456;-83
2023/03/18 00:21:15;;;;;;;8.40;3.93;;;8.60;90.60;;;;;;4985431;28;20452;-83
2023/03/18 00:23:41;;;;;;;7.30;3.25;;;8.60;90.40;;;;;;4986930;28;20419;-83
2023/03/18 00:26:10;;;;;;;5.23;3.10;;;8.60;90.30;;;;;;4998676;28;20528;-82
2023/03/18 00:28:42;;;;;;;7.13;2.93;;;8.60;90.10;;;;;;4996903;28;20484;-81
2023/03/18 00:31:12;;;;;;;4.10;3.07;;;8.50;90.40;;;;;;4990016;28;20516;-80
2023/03/18 00:33:39;;;;;;;3.33;2.70;;;8.50;90.60;;;;;;4997331;28;20512;-80
2023/03/18 00:36:49;;;;;;;3.07;2.80;;;8.40;90.70;;;;;;4990561;28;20862;-80
2023/03/18 00:39:02;;;;;;;10.13;4.43;;;8.40;90.80;;;;;;4992279;28;20455;-80
2023/03/18 00:41:33;;;;;;;9.40;3.37;;;8.40;91.00;;;;;;5000257;28;20456;-80
2023/03/18 00:44:49;;;;;;;4.20;1.83;;;8.30;91.00;;;;;;4994447;28;20428;-81
2023/03/18 00:47:17;;;;;;;2.80;1.93;;;8.30;91.20;;;;;;4981281;28;20464;-82
2023/03/18 00:49:42;;;;;;;4.43;3.30;;;8.30;91.30;;;;;;4984968;28;20420;-79
2023/03/18 00:52:08;;;;;;;2.73;2.40;;;8.30;91.20;;;;;;4982812;28;20413;-82
2023/03/18 00:54:34;;;;;;;2.77;2.40;;;8.30;91.20;;;;;;4984312;28;20206;-81
2023/03/18 00:57:00;;;;;;;5.73;2.33;;;8.30;91.50;;;;;;4993830;28;20194;-79
2023/03/18 00:59:26;;;;;;;3.37;2.80;;;8.20;91.70;;;;;;5015325;28;20807;-81
2023/03/18 01:01:52;;;;;;;2.23;2.03;;;8.20;92.20;;;;;;4991394;28;20504;-82
2023/03/18 01:04:18;;;;;;;2.03;1.90;;;8.20;92.00;;;;;;4990286;28;20263;-83
2023/03/18 01:06:43;;;;;;;3.93;2.80;;;8.20;92.00;;;;;;4990941;28;20499;-80
2023/03/18 01:09:10;;;;;;;1.80;1.70;;;8.20;91.90;;;;;;4995151;28;20202;-81
2023/03/18 01:11:36;;;;;;;1.83;1.73;;;8.20;91.70;;;;;;4984726;28;20429;-84
2023/03/18 01:14:02;;;;;;;5.20;2.57;;;8.30;91.30;;;;;;4991834;28;20424;-85
2023/03/18 01:16:28;;;;;;;4.93;2.03;;;8.30;91.20;;;;;;4995257;28;20930;-82
2023/03/18 01:18:54;;;;;;;2.30;2.10;;;8.30;90.80;;;;;;4998129;28;20205;-82
2023/03/18 01:21:21;;;;;;;1.90;1.80;;;8.40;90.70;;;;;;4984434;28;20402;-83
2023/03/18 01:23:46;;;;;;;2.50;1.67;;;8.40;90.10;;;;;;4992131;28;20177;-83
2023/03/18 01:26:12;;;;;;;10.83;2.77;;;8.60;89.70;;;;;;4994086;28;20419;-83
2023/03/18 01:28:38;;;;;;;3.73;2.90;;;8.70;89.20;;;;;;5000997;28;20212;-83
2023/03/18 01:31:04;;;;;;;3.93;3.30;;;8.70;89.00;;;;;;4982639;28;20721;-83
2023/03/18 01:33:29;;;;;;;1.37;1.33;;;8.80;88.80;;;;;;4984780;28;20289;-83
2023/03/18 01:35:58;;;;;;;2.07;1.93;;;8.80;88.30;;;;;;4974666;28;20516;-83
2023/03/18 01:38:25;;;;;;;3.27;2.57;;;8.90;88.10;;;;;;4993679;28;20208;-83
2023/03/18 01:40:53;;;;;;;5.73;3.33;;;8.90;88.10;;;;;;4987766;28;20435;-83
2023/03/18 01:43:34;;;;;;;6.03;3.90;;;8.90;88.40;;;;;;4987151;28;20420;-83
2023/03/18 01:46:01;;;;;;;5.53;3.37;;;8.90;88.50;;;;;;4991269;28;20421;-83
2023/03/18 01:48:29;;;;;;;4.43;2.60;;;9.00;88.10;;;;;;4999340;28;20441;-83
2023/03/18 01:51:08;;;;;;;2.27;2.07;;;9.00;88.00;;;;;;4979072;28;20413;-83
2023/03/18 01:53:40;;;;;;;2.13;1.77;;;9.00;87.80;;;;;;4983990;28;20518;-83
2023/03/18 01:56:07;;;;;;;15.13;2.80;;;9.00;87.90;;;;;;4980428;28;20410;-83
2023/03/18 01:58:37;;;;;;;4.53;2.27;;;9.10;87.70;;;;;;4981616;28;20496;-83
2023/03/18 02:01:21;;;;;;;1.97;1.90;;;9.10;87.40;;;;;;4983682;28;20409;-83
2023/03/18 02:03:50;;;;;;;4.00;2.80;;;9.10;87.50;;;;;;4986844;28;20427;-81
2023/03/18 02:06:32;;;;;;;4.00;1.70;;;9.10;87.70;;;;;;4982797;28;20971;-83
2023/03/18 02:09:01;;;;;;;2.83;2.23;;;9.10;87.80;;;;;;4990918;28;20811;-81
2023/03/18 02:11:43;;;;;;;4.63;2.83;;;9.10;87.80;;;;;;4987996;28;20983;-83
2023/03/18 02:14:29;;;;;;;4.63;2.90;;;9.10;87.80;;;;;;4989548;28;21017;-82
2023/03/18 02:17:30;;;;;;;1.73;1.67;;;9.10;87.70;;;;;;4991333;28;21148;-83
2023/03/18 02:20:11;;;;;;;4.37;2.10;;;9.10;88.00;;;;;;4956571;28;20473;-82
2023/03/18 02:29:20;;;;;;;13.30;2.90;;;9.00;88.00;;;;;;4987405;28;20428;-83
2023/03/18 02:31:49;;;;;;;3.13;1.97;;;8.90;88.40;;;;;;5001424;28;20950;-83
2023/03/18 02:34:31;;;;;;;2.40;2.13;;;8.90;88.50;;;;;;5002821;28;20415;-82
2023/03/18 02:37:00;;;;;;;4.33;3.27;;;8.90;88.60;;;;;;4989710;28;20437;-82
2023/03/18 02:39:59;;;;;;;1.90;1.80;;;8.80;88.80;;;;;;4997941;28;20477;-83
2023/03/18 02:42:31;;;;;;;1.90;1.83;;;8.80;89.10;;;;;;4920966;29;20764;-81
2023/03/18 02:44:58;;;;;;;8.00;2.80;;;8.80;89.10;;;;;;4918378;28;20427;-83
2023/03/18 02:47:26;;;;;;;3.63;2.70;;;8.70;89.40;;;;;;4990117;28;20986;-83
2023/03/18 02:49:52;;;;;;;2.40;1.97;;;8.70;89.30;;;;;;4994288;28;20417;-83
2023/03/18 02:52:18;;;;;;;2.40;2.20;;;8.70;89.30;;;;;;4983218;28;20563;-83
2023/03/18 02:54:43;;;;;;;2.60;2.03;;;8.70;89.30;;;;;;4986568;28;20517;-82
2023/03/18 02:57:09;;;;;;;3.10;2.10;;;8.70;89.20;;;;;;4989081;28;20184;-83
2023/03/18 02:59:34;;;;;;;1.80;1.70;;;8.70;89.30;;;;;;4989971;28;20207;-83
2023/03/18 03:02:00;;;;;;;3.30;3.00;;;8.70;89.20;;;;;;4997615;28;20640;-83
2023/03/18 03:04:27;;;;;;;2.50;2.30;;;8.70;89.30;;;;;;4974754;28;20182;-83
2023/03/18 03:06:55;;;;;;;3.33;2.57;;;8.70;89.30;;;;;;4993834;28;20412;-82
2023/03/18 03:09:21;;;;;;;2.23;1.83;;;8.70;89.50;;;;;;4992699;28;20395;-82
2023/03/18 03:11:47;;;;;;;3.03;2.37;;;8.60;89.70;;;;;;4979687;28;20416;-83
2023/03/18 03:14:24;;;;;;;2.70;2.50;;;8.60;89.70;;;;;;4972226;28;20418;-82
2023/03/18 03:16:52;;;;;;;2.00;1.63;;;8.60;89.80;;;;;;4993414;28;20424;-83
2023/03/18 03:19:21;;;;;;;2.50;1.90;;;8.50;89.90;;;;;;5064682;23;20472;-81
2023/03/18 03:21:59;;;;;;;11.63;2.20;;;8.50;90.00;;;;;;5048688;28;20411;-82
2023/03/18 03:24:31;;;;;;;2.60;2.40;;;8.50;90.20;;;;;;5051237;28;20425;-83
2023/03/18 03:27:00;;;;;;;1.53;1.43;;;8.40;90.20;;;;;;5051167;28;20493;-83
2023/03/18 03:29:31;;;;;;;2.90;1.70;;;8.40;90.30;;;;;;5037904;28;20956;-82
2023/03/18 03:32:00;;;;;;;2.57;2.23;;;8.40;90.30;;;;;;5032886;28;20455;-82
2023/03/18 03:34:30;;;;;;;6.40;2.73;;;8.40;90.50;;;;;;5030077;28;20507;-83
2023/03/18 03:36:59;;;;;;;3.60;2.93;;;8.40;90.60;;;;;;5035201;28;20514;-83
2023/03/18 03:39:31;;;;;;;2.83;2.70;;;8.40;90.50;;;;;;5030854;28;20643;-82
2023/03/18 03:42:10;;;;;;;3.67;2.13;;;8.30;90.70;;;;;;5028571;28;20412;-82
2023/03/18 03:45:09;;;;;;;4.57;3.47;;;8.30;90.60;;;;;;5037625;28;20438;-82
2023/03/18 03:47:40;;;;;;;2.20;1.83;;;8.30;90.80;;;;;;5030902;28;20434;-81
2023/03/18 03:50:41;;;;;;;2.97;1.60;;;8.30;91.00;;;;;;5041307;28;20407;-82
2023/03/18 03:53:40;;;;;;;2.63;2.43;;;8.30;90.90;;;;;;5033365;28;20417;-83
2023/03/18 03:56:08;;;;;;;1.30;1.20;;;8.30;91.20;;;;;;5039375;28;20764;-83
2023/03/18 03:58:36;;;;;;;2.90;2.70;;;8.20;91.40;;;;;;5034639;28;20433;-83
2023/03/18 04:01:03;;;;;;;6.73;1.97;;;8.20;91.30;;;;;;5029402;28;20926;-83
2023/03/18 04:03:29;;;;;;;1.97;1.87;;;8.20;91.40;;;;;;5028730;28;20416;-83
2023/03/18 04:05:55;;;;;;;2.50;2.20;;;8.20;91.60;;;;;;5029566;28;20722;-83
2023/03/18 04:08:21;;;;;;;2.50;1.87;;;8.10;91.80;;;;;;5030158;28;20216;-83
2023/03/18 04:10:46;;;;;;;1.70;1.60;;;8.10;91.80;;;;;;5031313;28;20211;-82
2023/03/18 04:13:12;;;;;;;1.70;1.60;;;8.10;91.90;;;;;;5029718;28;20451;-83
2023/03/18 04:15:37;;;;;;;3.63;1.80;;;8.00;92.00;;;;;;5030792;28;20553;-83
2023/03/18 04:18:05;;;;;;;2.60;2.40;;;8.00;92.10;;;;;;5037621;28;20216;-83
2023/03/18 04:20:33;;;;;;;2.50;1.70;;;8.00;92.10;;;;;;5030332;28;20778;-83
2023/03/18 04:22:58;;;;;;;3.00;2.63;;;8.10;92.10;;;;;;5030901;28;20424;-82
2023/03/18 04:25:25;;;;;;;2.40;1.80;;;8.10;92.10;;;;;;5032093;28;20438;-83
2023/03/18 04:27:51;;;;;;;2.80;2.60;;;8.00;92.40;;;;;;5028638;28;20500;-83
2023/03/18 04:30:19;;;;;;;3.90;1.73;;;8.00;92.60;;;;;;5029373;28;20454;-82
2023/03/18 04:32:44;;;;;;;1.43;1.33;;;8.00;92.80;;;;;;5028489;28;20435;-83
2023/03/18 04:35:10;;;;;;;6.77;3.07;;;8.00;92.50;;;;;;5032914;28;20417;-81
2023/03/18 04:37:36;;;;;;;2.00;1.90;;;8.00;92.50;;;;;;5029547;28;20213;-82
2023/03/18 04:40:04;;;;;;;2.03;1.60;;;8.00;92.60;;;;;;5033136;28;20467;-82
2023/03/18 04:42:29;;;;;;;1.63;1.53;;;8.00;92.50;;;;;;5033478;28;20183;-82
2023/03/18 04:44:55;;;;;;;2.30;1.40;;;8.00;92.50;;;;;;5028549;28;20428;-83
2023/03/18 04:47:21;;;;;;;4.37;3.00;;;8.00;92.60;;;;;;5035993;28;20191;-82
2023/03/18 04:49:47;;;;;;;2.17;2.00;;;8.10;92.40;;;;;;5037836;28;20176;-83
2023/03/18 04:52:12;;;;;;;3.90;2.47;;;8.10;92.40;;;;;;5041681;28;20658;-83
2023/03/18 04:54:38;;;;;;;1.90;1.87;;;8.10;92.50;;;;;;5040171;28;20177;-83
2023/03/18 04:57:04;;;;;;;3.93;3.20;;;8.10;92.50;;;;;;5038778;28;20322;-83
2023/03/18 04:59:30;;;;;;;1.27;1.20;;;8.10;92.50;;;;;;5031651;28;20204;-84
2023/03/18 05:01:55;;;;;;;1.67;1.57;;;8.10;92.60;;;;;;5029026;28;20426;-83
2023/03/18 05:04:22;;;;;;;2.40;2.20;;;8.10;92.80;;;;;;5028940;28;20187;-83
2023/03/18 05:06:48;;;;;;;6.77;2.53;;;8.10;92.90;;;;;;5035427;28;20620;-84
2023/03/18 05:09:13;;;;;;;3.90;3.10;;;8.00;93.10;;;;;;5036698;28;20443;-83
2023/03/18 05:11:39;;;;;;;2.13;1.97;;;8.00;93.40;;;;;;5030064;28;20659;-84
2023/03/18 05:14:04;;;;;;;3.43;2.03;;;8.00;93.40;;;;;;5030713;28;20241;-84
2023/03/18 05:16:30;;;;;;;2.77;2.53;;;7.90;93.70;;;;;;5053855;28;20214;-84
2023/03/18 05:18:56;;;;;;;2.23;2.07;;;7.90;93.90;;;;;;5043036;28;20235;-83
2023/03/18 05:21:21;;;;;;;2.83;1.63;;;7.90;93.80;;;;;;5029029;28;20577;-83
2023/03/18 05:23:47;;;;;;;3.80;2.60;;;7.80;94.10;;;;;;5028852;28;20211;-83
2023/03/18 05:26:12;;;;;;;2.67;2.47;;;7.80;94.30;;;;;;5031584;28;20202;-83
2023/03/18 05:28:38;;;;;;;2.43;2.23;;;7.80;94.30;;;;;;5039565;28;20207;-83
2023/03/18 05:31:05;;;;;;;2.60;2.40;;;7.80;94.40;;;;;;5036599;28;20172;-83
2023/03/18 05:33:31;;;;;;;2.10;1.30;;;7.80;94.60;;;;;;5029865;28;20804;-84
2023/03/18 05:35:57;;;;;;;3.00;1.53;;;7.80;94.60;;;;;;5029732;28;20419;-83
2023/03/18 05:38:23;;;;;;;5.40;3.10;;;7.80;94.50;;;;;;5028318;28;20449;-83
2023/03/18 05:40:48;;;;;;;2.10;1.93;;;7.80;94.70;;;;;;5035880;28;20237;-84
2023/03/18 05:43:14;;;;;;;2.23;2.03;;;7.80;94.90;;;;;;5028584;28;20211;-83
2023/03/18 05:45:41;;;;;;;15.90;2.80;;;7.80;95.00;;;;;;5029062;28;20181;-84
2023/03/18 05:48:06;;;;;;;1.77;1.67;;;7.80;94.70;;;;;;5030725;28;20430;-83
2023/03/18 05:50:35;;;;;;;1.57;1.47;;;7.80;94.60;;;;;;5027173;28;20422;-83
2023/03/18 05:53:02;;;;;;;2.80;2.10;;;7.90;94.70;;;;;;5027082;28;20651;-84
2023/03/18 05:55:28;;;;;;;5.67;3.80;;;7.90;94.90;;;;;;5028981;28;20781;-84
2023/03/18 05:57:54;;;;;;;2.50;2.30;;;7.90;94.90;;;;;;5037205;28;20500;-84
2023/03/18 06:00:20;;;;;;;2.70;1.70;;;7.90;94.90;;;;;;5036548;28;20485;-84
2023/03/18 06:02:46;;;;;;;1.83;1.73;;;7.90;94.90;;;;;;5036114;28;20922;-84
2023/03/18 06:05:13;;;;;;;4.93;2.37;;;7.90;95.00;;;;;;5038142;28;20195;-83
2023/03/18 06:07:40;;;;;;;1.83;1.73;;;8.00;95.00;;;;;;5032432;28;20436;-83
2023/03/18 06:10:06;;;;;;;1.43;1.33;;;8.00;94.70;;;;;;5030552;28;20514;-84
2023/03/18 06:12:32;;;;;;;9.30;2.83;;;8.10;94.50;;;;;;5038268;28;20415;-84
2023/03/18 06:14:58;;;;;;;5.93;2.27;;;8.10;94.30;;;;;;5036656;28;20410;-83
2023/03/18 06:17:23;;;;;;;4.63;2.43;;;8.20;94.50;;;;;;5035478;28;20683;-84
2023/03/18 06:19:49;;;;;;;5.13;2.53;;;8.20;94.30;;;;;;5028172;28;20330;-84
2023/03/18 06:22:15;;;;;;;8.63;1.87;;;8.20;94.40;;;;;;5026793;28;20267;-83
2023/03/18 06:24:41;;;;;;;4.30;3.60;;;8.30;94.40;;;;;;5026854;28;20942;-84
2023/03/18 06:27:07;;;;;;;1.50;1.40;;;8.30;94.30;;;;;;5031358;28;20180;-83
2023/03/18 06:29:34;;;;;;;3.37;3.17;;;8.40;94.20;;;;;;5036369;28;20206;-84
2023/03/18 06:31:59;;;;;;;1.63;1.23;;;8.40;94.40;;;;;;5031836;28;20515;-83
2023/03/18 06:34:25;;;;;;;5.80;2.07;;;8.50;94.10;;;;;;5033004;28;20419;-84
2023/03/18 06:36:51;;;;;;;3.60;2.27;;;8.60;93.90;;;;;;5032023;28;20248;-84
2023/03/18 06:39:17;;;;;;;7.97;3.13;;;8.60;94.10;;;;;;5037252;28;20772;-83
2023/03/18 06:41:43;;;;;;;4.23;2.07;;;8.60;94.10;;;;;;5030312;28;20414;-83
2023/03/18 06:44:10;;;;;;;1.85;1.75;;;8.70;94.10;;;;;;5035782;28;20781;-83
2023/03/18 06:46:41;;;;;;;2.70;2.50;;;8.70;93.80;;;;;;5032000;28;20177;-84
2023/03/18 06:49:10;;;;;;;2.20;1.77;;;8.80;94.10;;;;;;5044247;28;20956;-83
2023/03/18 06:51:42;;;;;;;3.10;2.60;;;8.80;94.20;;;;;;5037387;28;20456;-83
2023/03/18 06:54:10;;;;;;;1.30;1.20;;;8.80;93.90;;;;;;5033703;28;21128;-82
2023/03/18 06:56:42;;;;;;;1.93;1.70;;;8.80;94.10;;;;;;5031495;28;20442;-83
2023/03/18 06:59:11;;;;;;;3.73;2.40;;;8.90;94.00;;;;;;5021596;22;20553;-81
2023/03/18 07:01:36;;;;;;;2.80;1.90;;;8.90;93.90;;;;;;5007685;28;20420;-83
2023/03/18 07:04:05;;;;;;;2.13;1.97;;;9.00;94.10;;;;;;5011928;28;20428;-83
2023/03/18 07:06:31;;;;;;;3.87;2.37;;;9.00;94.10;;;;;;5011851;28;20655;-83
2023/03/18 07:08:57;;;;;;;1.70;1.40;;;9.10;94.00;;;;;;5020557;28;20454;-83
2023/03/18 07:11:24;;;;;;;1.97;1.90;;;9.10;93.60;;;;;;5024002;28;20552;-83
2023/03/18 07:13:51;;;;;;;6.13;2.47;;;9.20;93.60;;;;;;5037769;28;20434;-84
2023/03/18 07:16:17;;;;;;;2.50;2.30;;;9.30;93.70;;;;;;5022555;28;20418;-85
2023/03/18 07:18:43;;;;;;;2.33;2.17;;;9.30;93.00;;;;;;5032066;28;20435;-84
2023/03/18 07:21:08;;;;;;;1.90;1.80;;;9.40;93.40;;;;;;5021148;28;20176;-84
2023/03/18 07:23:34;;;;;;;2.70;2.50;;;9.40;93.40;;;;;;5028563;28;20264;-84
2023/03/18 07:26:00;;;;;;;4.97;3.07;;;9.40;93.10;;;;;;5031490;28;20256;-83
2023/03/18 07:28:25;;;;;;;1.50;1.40;;;9.40;93.40;;;;;;5031105;28;20207;-83
2023/03/18 07:30:51;;;;;;;2.20;2.00;;;9.50;93.60;;;;;;5030548;28;20235;-84
2023/03/18 07:33:16;;;;;;;2.50;1.83;;;9.50;93.60;;;;;;5021524;28;20185;-84
2023/03/18 07:35:42;;;;;;;3.20;2.70;;;9.50;93.80;;;;;;5019673;28;20181;-84
2023/03/18 07:38:08;;;;;;;2.00;1.23;;;9.60;93.40;;;;;;5017369;28;20574;-84
2023/03/18 07:40:34;;;;;;;1.70;1.60;;;9.60;93.30;;;;;;5026660;28;20204;-84
2023/03/18 07:43:00;;;;;;;2.60;2.00;;;9.70;93.30;;;;;;5030259;28;20482;-84
2023/03/18 07:45:25;;;;;;;2.97;1.87;;;9.70;93.20;;;;;;5029163;28;20434;-84
2023/03/18 07:47:51;;;;;;;1.63;1.53;;;9.80;93.00;;;;;;5030520;28;20228;-84
2023/03/18 07:50:17;;;;;;;3.30;1.93;;;9.90;93.10;;;;;;5026523;28;20185;-84
2023/03/18 07:52:43;;;;;;;8.93;2.00;;;10.00;92.60;;;;;;5030262;28;20188;-84
2023/03/18 07:55:10;;;;;;;1.57;1.53;;;10.10;92.30;;;;;;5020155;28;20181;-83
2023/03/18 07:57:36;;;;;;;2.80;2.60;;;10.20;92.10;;;;;;5025854;28;20458;-83
2023/03/18 08:00:04;;;;;;;1.33;1.23;;;10.30;91.70;;;;;;5028530;28;20463;-84
2023/03/18 08:02:29;;;;;;;1.37;1.27;;;10.30;90.90;;;;;;5023463;28;20510;-83
2023/03/18 08:04:55;;;;;;;1.77;1.67;;;10.40;91.10;;;;;;5028873;28;20642;-84
2023/03/18 08:07:23;;;;;;;12.87;2.37;;;10.40;91.00;;;;;;5029839;28;20201;-84
2023/03/18 08:09:49;;;;;;;3.13;2.00;;;10.40;90.90;;;;;;5022722;28;20209;-83
2023/03/18 08:12:15;;;;;;;1.70;1.60;;;10.50;91.30;;;;;;5029428;28;20474;-84
2023/03/18 08:14:41;;;;;;;6.43;2.17;;;10.50;91.10;;;;;;5021910;28;20450;-84
2023/03/18 08:17:07;;;;;;;3.73;2.80;;;10.50;91.40;;;;;;5017660;28;20424;-84
2023/03/18 08:19:33;;;;;;;4.80;2.40;;;10.50;91.50;;;;;;5022467;28;20501;-83
2023/03/18 08:21:58;;;;;;;2.43;2.30;;;10.50;91.40;;;;;;5021432;28;20512;-83
2023/03/18 08:24:24;;;;;;;2.30;2.10;;;10.50;91.50;;;;;;5026118;28;20192;-83
2023/03/18 08:26:50;;;;;;;1.73;1.40;;;10.60;91.20;;;;;;5033881;28;20186;-83
2023/03/18 08:29:15;;;;;;;3.90;2.10;;;10.60;91.20;;;;;;5029671;28;20185;-83
2023/03/18 08:31:41;;;;;;;1.43;1.33;;;10.70;91.00;;;;;;5026805;28;20191;-83
2023/03/18 08:34:07;;;;;;;2.20;2.00;;;10.70;91.10;;;;;;5027504;28;20566;-83
2023/03/18 08:36:33;;;;;;;1.90;1.80;;;10.80;91.30;;;;;;5029974;28;20424;-84
2023/03/18 08:38:58;;;;;;;2.87;2.67;;;10.80;91.30;;;;;;5020561;28;20201;-84
2023/03/18 08:41:25;;;;;;;4.53;2.20;;;10.90;91.10;;;;;;5022562;28;20636;-83
2023/03/18 08:43:51;;;;;;;1.50;1.40;;;10.90;91.10;;;;;;5020851;28;20176;-84
2023/03/18 08:46:17;;;;;;;4.60;2.93;;;11.00;91.00;;;;;;5028077;28;20561;-83
2023/03/18 08:48:43;;;;;;;1.00;1.00;;;11.00;91.10;;;;;;5027771;28;20434;-84
2023/03/18 08:51:09;;;;;;;2.77;1.90;;;11.10;90.70;;;;;;5018500;28;20427;-86
2023/03/18 08:53:36;;;;;;;4.07;1.77;;;11.10;90.80;;;;;;5024474;28;20658;-86
2023/03/18 08:56:04;;;;;;;1.73;1.63;;;11.20;90.30;;;;;;5026245;28;20411;-83
2023/03/18 08:58:30;;;;;;;1.90;1.60;;;11.20;90.10;;;;;;5029070;28;20471;-83
2023/03/18 09:00:56;;;;;;;1.87;1.77;;;11.30;90.00;;;;;;5030601;28;20431;-83
2023/03/18 09:03:23;;;;;;;2.70;2.17;;;11.40;90.10;;;;;;5027182;28;20177;-83
2023/03/18 09:05:48;;;;;;;4.00;2.20;;;11.40;90.10;;;;;;5029130;28;20658;-84
2023/03/18 09:08:14;;;;;;;2.47;2.23;;;11.50;90.60;;;;;;5026465;28;20481;-84
2023/03/18 09:10:40;;;;;;;3.17;1.97;;;11.60;90.70;;;;;;5022638;28;20266;-83
2023/03/18 09:13:13;;;;;;;1.40;1.30;;;11.60;90.60;;;;;;5029337;28;20206;-83
2023/03/18 09:15:41;;;;;;;4.50;1.53;;;11.70;90.30;;;;;;5027993;28;20498;-82
2023/03/18 09:18:13;;;;;;;2.00;1.77;;;11.80;90.50;;;;;;5017658;28;20447;-82
2023/03/18 09:20:40;;;;;;;4.37;1.83;;;11.80;89.80;;;;;;5028939;28;20485;-83
2023/03/18 09:23:25;;;;;;;3.17;2.47;;;11.90;89.80;;;;;;5026160;28;20766;-82
2023/03/18 09:25:50;;;;;;;1.60;1.43;;;12.00;90.10;;;;;;5023243;28;20414;-83
2023/03/18 09:28:21;;;;;;;3.07;1.77;;;12.10;89.50;;;;;;5026007;28;20434;-83
2023/03/18 09:30:50;;;;;;;4.43;2.03;;;12.20;89.90;;;;;;5015384;28;20187;-84
2023/03/18 09:33:22;;;;;;;1.67;1.63;;;12.20;89.30;;;;;;5024276;28;20431;-83
2023/03/18 09:35:50;;;;;;;5.23;2.60;;;12.30;89.10;;;;;;5023830;28;20807;-84
2023/03/18 09:38:18;;;;;;;1.90;1.60;;;12.40;89.20;;;;;;5026031;28;20470;-84
2023/03/18 09:41:01;;;;;;;2.83;2.63;;;12.40;88.80;;;;;;5029615;28;20466;-84
2023/03/18 09:43:45;;;;;;;5.03;1.60;;;12.50;88.90;;;;;;5024151;28;20427;-84
2023/03/18 09:46:25;;;;;;;2.60;1.60;;;12.60;88.70;;;;;;5022006;28;20446;-84
2023/03/18 09:49:37;;;;;;;3.23;3.00;;;12.70;89.30;;;;;;5026511;28;20895;-83
2023/03/18 09:52:16;;;;;;;1.27;1.17;;;12.90;88.70;;;;;;5015902;28;20427;-83
2023/03/18 09:54:53;;;;;;;1.63;1.53;;;13.00;88.60;;;;;;5026848;28;20837;-84
2023/03/18 09:57:42;;;;;;;6.30;1.83;;;13.10;88.30;;;;;;5021184;28;20439;-84
2023/03/18 10:00:12;;;;;;;3.33;2.50;;;13.30;88.50;;;;;;5017872;28;20495;-84
2023/03/18 10:02:50;;;;;;;1.93;1.80;;;13.40;88.70;;;;;;5025333;28;20463;-84
2023/03/18 10:05:29;;;;;;;6.70;3.50;;;13.60;88.70;;;;;;5022156;28;20430;-83
2023/03/18 10:07:58;;;;;;;1.63;1.53;;;13.70;88.00;;;;;;5030821;28;20439;-86
2023/03/18 10:10:35;;;;;;;5.67;3.27;;;14.00;88.70;;;;;;5031943;28;20603;-83
2023/03/18 10:13:32;;;;;;;3.13;2.43;;;14.40;87.30;;;;;;5020676;28;20473;-82
2023/03/18 10:16:06;;;;;;;3.10;1.83;;;14.80;86.50;;;;;;5028793;28;20418;-84
2023/03/18 10:18:42;;;;;;;3.60;2.70;;;15.10;85.20;;;;;;5023694;28;21043;-83
2023/03/18 10:21:46;;;;;;;1.83;1.60;;;15.20;84.70;;;;;;5028461;28;20427;-83
2023/03/18 10:24:30;;;;;;;2.13;1.80;;;15.30;85.70;;;;;;5027221;28;20418;-84
2023/03/18 10:27:31;;;;;;;2.67;2.10;;;15.50;85.00;;;;;;5020216;28;20412;-83
2023/03/18 10:30:36;;;;;;;5.47;1.77;;;15.60;85.20;;;;;;4984288;28;20420;-84
2023/03/18 10:33:33;;;;;;;2.43;2.23;;;15.70;84.80;;;;;;5025056;28;20423;-84
2023/03/18 10:36:24;;;;;;;4.03;1.63;;;15.80;83.90;;;;;;5027592;28;20434;-84
2023/03/18 10:38:54;;;;;;;2.27;2.07;;;15.90;85.10;;;;;;4984346;28;20436;-84
2023/03/18 10:41:31;;;;;;;6.50;4.10;;;15.90;84.10;;;;;;5028591;28;20443;-81
2023/03/18 10:44:10;;;;;;;3.73;3.20;;;16.10;84.90;;;;;;5022308;28;20922;-84
2023/03/18 10:46:52;;;;;;;1.63;1.53;;;16.40;83.70;;;;;;5024486;28;20412;-84
2023/03/18 10:49:30;;;;;;;1.53;1.43;;;16.60;83.40;;;;;;5023051;28;20468;-84
2023/03/18 10:52:22;;;;;;;2.67;1.87;;;16.70;82.70;;;;;;5020115;28;20481;-84
2023/03/18 10:54:51;;;;;;;1.73;1.63;;;16.70;82.60;;;;;;5031112;28;20418;-84
2023/03/18 10:57:40;;;;;;;2.03;1.77;;;16.70;82.50;;;;;;5030991;28;20443;-84
2023/03/18 11:00:32;;;;;;;2.07;1.60;;;16.60;82.70;;;;;;5007356;28;20475;-84
2023/03/18 11:03:12;;;;;;;11.10;1.53;;;16.60;83.20;;;;;;5021972;28;20499;-84
2023/03/18 11:05:38;;;;;;;2.00;1.80;;;16.70;83.30;;;;;;5021396;28;20546;-84
2023/03/18 11:08:27;;;;;;;3.47;1.60;;;16.80;82.80;;;;;;5019616;28;20525;-85
2023/03/18 11:10:53;;;;;;;2.50;2.20;;;17.00;82.50;;;;;;5018883;28;20177;-84
2023/03/18 11:13:22;;;;;;;4.27;2.60;;;17.30;83.20;;;;;;5018635;28;20431;-83
2023/03/18 11:15:53;;;;;;;18.60;3.27;;;17.60;82.80;;;;;;5025384;28;20174;-84
2023/03/18 11:18:43;;;;;;;2.17;1.80;;;17.90;81.50;;;;;;5025009;28;20529;-84
2023/03/18 11:21:20;;;;;;;1.60;1.27;;;18.10;80.80;;;;;;5024586;28;20428;-84
2023/03/18 11:24:34;;;;;;;2.30;2.10;;;18.20;82.20;;;;;;5020832;28;20423;-84
2023/03/18 11:27:01;;;;;;;1.27;1.17;;;18.30;80.00;;;;;;5024701;28;20435;-84
2023/03/18 11:29:34;;;;;;;5.20;2.87;;;18.30;80.50;;;;;;5028518;28;20950;-84
2023/03/18 11:32:03;;;;;;;2.00;1.40;;;18.40;80.50;;;;;;5030902;28;20430;-84
2023/03/18 11:34:30;;;;;;;1.57;1.40;;;18.40;80.30;;;;;;5022880;28;20428;-85
2023/03/18 11:37:07;;;;;;;3.53;2.37;;;18.40;81.90;;;;;;5030487;28;20434;-84
2023/03/18 11:39:39;;;;;;;2.60;2.13;;;18.60;81.00;;;;;;5022426;28;20466;-84
2023/03/18 11:42:20;;;;;;;2.77;1.80;;;18.70;80.20;;;;;;5023842;28;20511;-85
2023/03/18 11:44:48;;;;;;;1.70;1.40;;;18.90;81.00;;;;;;5025762;28;20411;-84
2023/03/18 11:47:24;;;;;;;2.03;1.50;;;19.00;80.60;;;;;;5027970;28;20423;-84
2023/03/18 11:49:50;;;;;;;2.23;2.03;;;18.90;80.50;;;;;;5019931;28;20914;-85
2023/03/18 11:52:38;;;;;;;1.30;1.20;;;19.10;80.40;;;;;;5010690;28;20424;-85
2023/03/18 11:55:28;;;;;;;2.80;1.80;;;19.10;79.70;;;;;;5017117;28;20209;-84
2023/03/18 11:58:26;;;;;;;5.03;2.63;;;19.20;80.60;;;;;;5029314;28;20536;-84
2023/03/18 12:01:05;;;;;;;5.03;2.00;;;19.50;80.60;;;;;;5016815;28;20486;-84
2023/03/18 12:03:56;;;;;;;7.73;2.40;;;19.60;79.90;;;;;;5026545;28;20424;-84
2023/03/18 12:06:27;;;;;;;1.50;1.40;;;19.50;79.60;;;;;;5026249;28;20442;-84
2023/03/18 12:09:14;;;;;;;2.37;1.67;;;19.70;80.10;;;;;;5026212;28;20577;-85
2023/03/18 12:12:01;;;;;;;2.20;1.47;;;19.80;80.70;;;;;;5022993;28;20425;-85
2023/03/18 12:14:37;;;;;;;1.67;1.47;;;20.00;80.30;;;;;;5028711;28;20526;-84
2023/03/18 12:17:28;;;;;;;3.37;2.23;;;20.20;80.20;;;;;;5030688;28;20426;-85
2023/03/18 12:20:00;;;;;;;4.87;2.43;;;20.30;79.70;;;;;;5018819;28;20456;-85
2023/03/18 12:22:39;;;;;;;5.33;2.13;;;20.50;79.00;;;;;;5025814;28;20514;-85
2023/03/18 12:25:19;;;;;;;2.53;2.33;;;20.40;78.70;;;;;;5025105;28;20937;-84
2023/03/18 12:28:15;;;;;;;2.80;2.60;;;20.40;79.40;;;;;;5028382;28;20436;-85
2023/03/18 12:30:47;;;;;;;1.80;1.70;;;20.70;78.90;;;;;;5011744;28;20427;-85
2023/03/18 12:33:41;;;;;;;4.10;1.87;;;20.70;78.00;;;;;;5026082;28;20411;-84
2023/03/18 12:36:07;;;;;;;;;;;20.80;78.70;;;;;;5030500;28;20415;-85
2023/03/18 12:38:37;;;;;;;;;;;20.80;77.90;;;;;;5025758;28;20496;-85
2023/03/18 12:41:24;;;;;;;;;;;20.80;77.50;;;;;;5029348;28;20306;-87
2023/03/18 12:43:53;;;;;;;;;;;20.80;78.70;;;;;;5039745;28;20239;-85
2023/03/18 12:46:22;;;;;;;;;;;20.90;77.80;;;;;;5028001;28;20229;-84
2023/03/18 12:48:53;;;;;;;;;;;21.10;78.20;;;;;;5029143;28;20386;-88
2023/03/18 12:51:25;;;;;;;;;;;21.10;78.00;;;;;;5016190;28;20594;-85
2023/03/18 12:53:53;;;;;;;;;;;21.00;77.70;;;;;;5019707;28;20570;-85
2023/03/18 12:56:20;;;;;;;;;;;20.80;77.90;;;;;;5027958;28;20720;-84
2023/03/18 12:59:06;;;;;;;;;;;21.00;78.00;;;;;;5018146;28;20189;-87
2023/03/18 13:01:48;;;;;;;;;;;21.10;77.10;;;;;;5028111;28;20295;-87
2023/03/18 13:04:17;;;;;;;;;;;21.30;78.00;;;;;;5020984;28;20203;-85
2023/03/18 13:07:04;;;;;;;;;;;21.50;77.00;;;;;;5025388;28;20429;-85
2023/03/18 13:09:46;;;;;;;;;;;21.70;77.00;;;;;;5028592;28;20256;-85
2023/03/18 13:12:12;;;;;;;;;;;21.90;76.40;;;;;;5029924;28;20155;-87
2023/03/18 13:14:57;;;;;;;;;;;21.70;76.90;;;;;;5021355;28;20175;-85
2023/03/18 13:17:25;;;;;;;;;;;21.90;77.20;;;;;;5026789;28;20169;-87
2023/03/18 13:19:50;;;;;;;;;;;22.00;75.70;;;;;;5022485;28;20220;-87
2023/03/18 13:22:16;;;;;;;;;;;22.10;76.20;;;;;;5042453;28;20176;-86
2023/03/18 13:24:52;;;;;;;;;;;22.20;75.30;;;;;;5017035;28;20689;-86
2023/03/18 13:27:18;;;;;;;;;;;22.40;74.90;;;;;;5027431;28;20167;-87